AFL3500 LTAI-URSS
Flight info
| Callsign | AFL3500 |
|---|---|
| Flight time | 1h 39m |
| Altitude | 34000 |
| Route | TEWHE UR55 MUT UA285 SELVI/N0460F330 UA285 TIRMA/N0462F350 UA285 GEM UT243 CRM UG901 BALUM/K0839F350 G901 KEPOL G487 DIRUN DIRUN1K |
| Aircraft | A321/M-SDE3FGHIRWY/LB1 |
Departure
| Time | 2026-05-04 06:18 |
|---|---|
| Airport | Antalya International Airport (LTAI) |
Arrival
| Time | 2026-05-04 07:57 |
|---|---|
| Airport | Sochi International Airport (URSS) |
| Time | Latitude | Longitude | Altitude | Speed | Heading |
|---|---|---|---|---|---|
| 2026-05-04 05:28 | 36.89737 | 30.80034 | 192 ft | 0 kts | 61° |
| 2026-05-04 06:05 | 36.89717 | 30.79987 | 196 ft | 3 kts | 61° |
| 2026-05-04 06:05 | 36.89699 | 30.79946 | 204 ft | 3 kts | 61° |
| 2026-05-04 06:05 | 36.89690 | 30.79925 | 204 ft | 1 kts | 61° |
| 2026-05-04 06:06 | 36.89681 | 30.79909 | 206 ft | 3 kts | 27° |
| 2026-05-04 06:06 | 36.89663 | 30.79902 | 206 ft | 3 kts | 21° |
| 2026-05-04 06:06 | 36.89648 | 30.79892 | 202 ft | 3 kts | 40° |
| 2026-05-04 06:06 | 36.89635 | 30.79874 | 196 ft | 3 kts | 69° |
| 2026-05-04 06:07 | 36.89631 | 30.79851 | 195 ft | 3 kts | 95° |
| 2026-05-04 06:07 | 36.89633 | 30.79835 | 202 ft | 0 kts | 97° |
| 2026-05-04 06:09 | 36.89632 | 30.79839 | 209 ft | 2 kts | 97° |
| 2026-05-04 06:09 | 36.89630 | 30.79869 | 192 ft | 5 kts | 97° |
| 2026-05-04 06:11 | 36.89591 | 30.80288 | 206 ft | 12 kts | 95° |
| 2026-05-04 06:11 | 36.89582 | 30.80401 | 197 ft | 14 kts | 96° |
| 2026-05-04 06:13 | 36.89039 | 30.80617 | 192 ft | 16 kts | 186° |
| 2026-05-04 06:14 | 36.88333 | 30.80521 | 205 ft | 18 kts | 186° |
| 2026-05-04 06:14 | 36.88210 | 30.80503 | 207 ft | 15 kts | 186° |
| 2026-05-04 06:15 | 36.88141 | 30.80563 | 193 ft | 10 kts | 101° |
| 2026-05-04 06:15 | 36.88129 | 30.80662 | 190 ft | 13 kts | 95° |
| 2026-05-04 06:15 | 36.88172 | 30.80735 | 197 ft | 11 kts | 12° |
| 2026-05-04 06:15 | 36.88201 | 30.80740 | 194 ft | 0 kts | 7° |
| 2026-05-04 06:16 | 36.88214 | 30.80742 | 194 ft | 12 kts | 7° |
| 2026-05-04 06:17 | 36.88539 | 30.80786 | 200 ft | 79 kts | 6° |
| 2026-05-04 06:17 | 36.89270 | 30.80885 | 190 ft | 130 kts | 7° |
| 2026-05-04 06:17 | 36.90308 | 30.81031 | 216 ft | 167 kts | 5° |
| 2026-05-04 06:17 | 36.91483 | 30.81245 | 646 ft | 174 kts | 3° |
| 2026-05-04 06:18 | 36.92650 | 30.81719 | 1160 ft | 178 kts | 17° |
| 2026-05-04 06:18 | 36.93787 | 30.82299 | 1645 ft | 175 kts | 16° |
| 2026-05-04 06:18 | 36.94912 | 30.82876 | 2180 ft | 174 kts | 15° |
| 2026-05-04 06:20 | 36.98263 | 30.93194 | 4516 ft | 279 kts | 90° |
| 2026-05-04 06:20 | 36.98047 | 30.95614 | 5283 ft | 280 kts | 91° |
| 2026-05-04 06:21 | 36.97217 | 31.05253 | 7928 ft | 283 kts | 91° |
| 2026-05-04 06:21 | 36.97012 | 31.07697 | 7982 ft | 283 kts | 92° |
| 2026-05-04 06:22 | 36.96893 | 31.10151 | 8009 ft | 281 kts | 85° |
| 2026-05-04 06:22 | 36.96909 | 31.12613 | 8674 ft | 283 kts | 86° |
| 2026-05-04 06:25 | 36.96959 | 31.51729 | 13918 ft | 382 kts | 85° |
| 2026-05-04 06:25 | 36.96976 | 31.55072 | 14396 ft | 385 kts | 86° |
| 2026-05-04 06:26 | 36.96997 | 31.58438 | 14895 ft | 389 kts | 86° |
| 2026-05-04 06:26 | 36.97019 | 31.61833 | 15400 ft | 393 kts | 86° |
| 2026-05-04 06:26 | 36.97033 | 31.65271 | 15875 ft | 396 kts | 86° |
| 2026-05-04 06:26 | 36.97031 | 31.68689 | 16345 ft | 400 kts | 87° |
| 2026-05-04 06:27 | 36.96838 | 31.82850 | 18206 ft | 416 kts | 96° |
| 2026-05-04 06:28 | 36.96242 | 31.86408 | 18604 ft | 420 kts | 106° |
| 2026-05-04 06:28 | 36.95161 | 31.89811 | 19016 ft | 424 kts | 116° |
| 2026-05-04 06:28 | 36.93620 | 31.92965 | 19420 ft | 427 kts | 126° |
| 2026-05-04 06:28 | 36.91929 | 31.96028 | 19816 ft | 429 kts | 118° |
| 2026-05-04 06:29 | 36.90725 | 31.99444 | 20206 ft | 430 kts | 106° |
| 2026-05-04 06:29 | 36.90063 | 32.03037 | 20596 ft | 430 kts | 96° |
| 2026-05-04 06:29 | 36.89861 | 32.06761 | 21002 ft | 430 kts | 89° |
| 2026-05-04 06:29 | 36.89795 | 32.10516 | 21310 ft | 436 kts | 91° |
| 2026-05-04 06:30 | 36.89700 | 32.14318 | 21621 ft | 440 kts | 91° |
| 2026-05-04 06:30 | 36.89591 | 32.18150 | 22081 ft | 441 kts | 91° |
| 2026-05-04 06:30 | 36.89480 | 32.21990 | 22530 ft | 442 kts | 91° |
| 2026-05-04 06:30 | 36.89371 | 32.25847 | 22922 ft | 444 kts | 90° |
| 2026-05-04 06:31 | 36.89263 | 32.29718 | 23296 ft | 447 kts | 90° |
| 2026-05-04 06:31 | 36.89155 | 32.33608 | 23609 ft | 449 kts | 90° |
| 2026-05-04 06:31 | 36.89051 | 32.37477 | 23831 ft | 454 kts | 92° |
| 2026-05-04 06:31 | 36.88943 | 32.41442 | 23990 ft | 460 kts | 92° |
| 2026-05-04 06:32 | 36.88834 | 32.45456 | 24253 ft | 463 kts | 92° |
| 2026-05-04 06:33 | 36.88042 | 32.74098 | 26140 ft | 480 kts | 93° |
| 2026-05-04 06:34 | 36.87920 | 32.78275 | 26401 ft | 482 kts | 93° |
| 2026-05-04 06:34 | 36.87796 | 32.82413 | 26650 ft | 484 kts | 93° |
| 2026-05-04 06:34 | 36.87669 | 32.86628 | 26905 ft | 486 kts | 93° |
| 2026-05-04 06:34 | 36.87538 | 32.90861 | 27167 ft | 488 kts | 94° |
| 2026-05-04 06:35 | 36.87406 | 32.95109 | 27441 ft | 489 kts | 94° |
| 2026-05-04 06:36 | 36.87367 | 33.24924 | 29486 ft | 497 kts | 75° |
| 2026-05-04 06:37 | 36.88545 | 33.28985 | 29752 ft | 498 kts | 64° |
| 2026-05-04 06:37 | 36.90253 | 33.32742 | 30008 ft | 496 kts | 54° |
| 2026-05-04 06:37 | 36.92420 | 33.36091 | 30249 ft | 494 kts | 44° |
| 2026-05-04 06:37 | 36.94908 | 33.39026 | 30552 ft | 491 kts | 41° |
| 2026-05-04 06:38 | 36.97423 | 33.41908 | 30863 ft | 489 kts | 41° |
| 2026-05-04 06:38 | 36.99931 | 33.44782 | 31139 ft | 488 kts | 41° |
| 2026-05-04 06:40 | 37.17314 | 33.64775 | 33022 ft | 483 kts | 41° |
| 2026-05-04 06:40 | 37.19783 | 33.67630 | 33267 ft | 482 kts | 41° |
| 2026-05-04 06:40 | 37.22254 | 33.70493 | 33445 ft | 484 kts | 41° |
| 2026-05-04 06:40 | 37.24724 | 33.73362 | 33650 ft | 484 kts | 41° |
| 2026-05-04 06:41 | 37.27199 | 33.76241 | 33772 ft | 484 kts | 41° |
| 2026-05-04 06:41 | 37.29652 | 33.79093 | 33781 ft | 483 kts | 41° |
| 2026-05-04 06:41 | 37.34572 | 33.84809 | 33778 ft | 482 kts | 41° |
| 2026-05-04 06:42 | 37.39493 | 33.90536 | 33783 ft | 481 kts | 42° |
| 2026-05-04 06:44 | 37.59195 | 34.13618 | 33792 ft | 485 kts | 42° |
| 2026-05-04 06:44 | 37.64140 | 34.19441 | 33810 ft | 485 kts | 42° |
| 2026-05-04 06:45 | 37.69076 | 34.25262 | 33825 ft | 486 kts | 42° |
| 2026-05-04 06:45 | 37.74002 | 34.31078 | 33847 ft | 487 kts | 42° |
| 2026-05-04 06:46 | 37.78940 | 34.36920 | 33862 ft | 488 kts | 42° |
| 2026-05-04 06:46 | 37.83079 | 34.41829 | 33886 ft | 488 kts | 43° |
| 2026-05-04 06:48 | 38.02790 | 34.65294 | 33797 ft | 485 kts | 43° |
| 2026-05-04 06:50 | 38.22395 | 34.88774 | 33792 ft | 483 kts | 44° |
| 2026-05-04 06:51 | 38.27278 | 34.94661 | 33796 ft | 483 kts | 44° |
| 2026-05-04 06:51 | 38.32143 | 35.00507 | 33778 ft | 482 kts | 44° |
| 2026-05-04 06:52 | 38.37045 | 35.06389 | 33773 ft | 483 kts | 44° |
| 2026-05-04 06:52 | 38.42061 | 35.12044 | 33775 ft | 484 kts | 40° |
| 2026-05-04 06:53 | 38.47266 | 35.17493 | 33781 ft | 484 kts | 39° |
| 2026-05-04 06:53 | 38.52470 | 35.22951 | 33786 ft | 484 kts | 41° |
| 2026-05-04 06:54 | 38.57394 | 35.28819 | 33760 ft | 483 kts | 46° |
| 2026-05-04 06:54 | 38.62060 | 35.35012 | 33753 ft | 484 kts | 47° |
| 2026-05-04 06:55 | 38.66733 | 35.41213 | 33770 ft | 484 kts | 47° |
| 2026-05-04 06:55 | 38.71469 | 35.47302 | 33793 ft | 484 kts | 46° |
| 2026-05-04 06:57 | 38.90536 | 35.71729 | 33751 ft | 484 kts | 47° |
| 2026-05-04 06:58 | 38.95290 | 35.77871 | 33732 ft | 485 kts | 46° |
| 2026-05-04 06:58 | 39.00128 | 35.83929 | 33727 ft | 487 kts | 45° |
| 2026-05-04 06:59 | 39.05007 | 35.89911 | 33734 ft | 488 kts | 45° |
| 2026-05-04 06:59 | 39.09921 | 35.95988 | 33730 ft | 489 kts | 46° |
| 2026-05-04 07:01 | 39.31366 | 36.08257 | 33752 ft | 493 kts | 14° |
| 2026-05-04 07:01 | 39.34709 | 36.09393 | 33738 ft | 493 kts | 14° |
| 2026-05-04 07:02 | 39.41325 | 36.11647 | 33741 ft | 493 kts | 14° |
| 2026-05-04 07:02 | 39.48004 | 36.13932 | 33743 ft | 493 kts | 14° |
| 2026-05-04 07:03 | 39.54618 | 36.16192 | 33727 ft | 494 kts | 14° |
| 2026-05-04 07:03 | 39.61276 | 36.18472 | 33733 ft | 495 kts | 15° |
| 2026-05-04 07:04 | 39.67901 | 36.20760 | 33750 ft | 494 kts | 15° |
| 2026-05-04 07:04 | 39.74519 | 36.23035 | 33756 ft | 493 kts | 15° |
| 2026-05-04 07:05 | 39.81136 | 36.25305 | 33760 ft | 492 kts | 15° |
| 2026-05-04 07:05 | 39.87769 | 36.27534 | 33737 ft | 492 kts | 10° |
| 2026-05-04 07:06 | 39.97918 | 36.29702 | 33761 ft | 492 kts | 9° |
| 2026-05-04 07:07 | 40.04637 | 36.31122 | 33757 ft | 490 kts | 9° |
| 2026-05-04 07:09 | 40.31500 | 36.36858 | 33836 ft | 487 kts | 9° |
| 2026-05-04 07:09 | 40.38184 | 36.38194 | 33817 ft | 486 kts | 8° |
| 2026-05-04 07:10 | 40.44853 | 36.39399 | 33821 ft | 484 kts | 8° |
| 2026-05-04 07:12 | 40.71416 | 36.44371 | 33793 ft | 477 kts | 9° |
| 2026-05-04 07:12 | 40.77944 | 36.45601 | 33765 ft | 476 kts | 10° |
| 2026-05-04 07:13 | 40.84500 | 36.46842 | 33772 ft | 475 kts | 10° |
| 2026-05-04 07:13 | 40.91019 | 36.48079 | 33800 ft | 474 kts | 11° |
| 2026-05-04 07:14 | 41.07262 | 36.51188 | 33786 ft | 471 kts | 11° |
| 2026-05-04 07:15 | 41.13770 | 36.52435 | 33756 ft | 470 kts | 11° |
| 2026-05-04 07:15 | 41.20252 | 36.53681 | 33782 ft | 469 kts | 11° |
| 2026-05-04 07:16 | 41.26581 | 36.55425 | 33792 ft | 461 kts | 24° |
| 2026-05-04 07:16 | 41.32199 | 36.59233 | 33802 ft | 453 kts | 35° |
| 2026-05-04 07:17 | 41.37643 | 36.63437 | 33817 ft | 452 kts | 34° |
| 2026-05-04 07:17 | 41.43073 | 36.67616 | 33816 ft | 451 kts | 34° |
| 2026-05-04 07:18 | 41.48503 | 36.71812 | 33770 ft | 451 kts | 35° |
| 2026-05-04 07:18 | 41.53946 | 36.76034 | 33773 ft | 452 kts | 35° |
| 2026-05-04 07:19 | 41.59357 | 36.80244 | 33784 ft | 452 kts | 35° |
| 2026-05-04 07:19 | 41.64794 | 36.84479 | 33763 ft | 452 kts | 36° |
| 2026-05-04 07:20 | 41.70236 | 36.88718 | 33775 ft | 453 kts | 36° |
| 2026-05-04 07:20 | 41.75706 | 36.92987 | 33813 ft | 452 kts | 36° |
| 2026-05-04 07:22 | 41.97317 | 37.09958 | 33800 ft | 449 kts | 36° |
| 2026-05-04 07:23 | 42.02690 | 37.14182 | 33789 ft | 449 kts | 36° |
| 2026-05-04 07:23 | 42.08083 | 37.18437 | 33798 ft | 449 kts | 36° |
| 2026-05-04 07:24 | 42.13481 | 37.22695 | 33796 ft | 449 kts | 36° |
| 2026-05-04 07:24 | 42.18876 | 37.26968 | 33791 ft | 449 kts | 36° |
| 2026-05-04 07:26 | 42.40425 | 37.44103 | 33818 ft | 449 kts | 36° |
| 2026-05-04 07:27 | 42.45792 | 37.48403 | 33821 ft | 449 kts | 36° |
| 2026-05-04 07:27 | 42.51184 | 37.52735 | 33800 ft | 449 kts | 36° |
| 2026-05-04 07:28 | 42.56554 | 37.57040 | 33803 ft | 450 kts | 36° |
| 2026-05-04 07:28 | 42.61924 | 37.61355 | 33804 ft | 450 kts | 36° |
| 2026-05-04 07:29 | 42.67342 | 37.65715 | 33780 ft | 452 kts | 36° |
| 2026-05-04 07:29 | 42.72666 | 37.70266 | 33790 ft | 452 kts | 39° |
| 2026-05-04 07:30 | 42.77826 | 37.75105 | 33802 ft | 452 kts | 40° |
| 2026-05-04 07:30 | 42.82977 | 37.80000 | 33811 ft | 455 kts | 39° |
| 2026-05-04 07:31 | 42.88241 | 37.84898 | 33818 ft | 457 kts | 39° |
| 2026-05-04 07:33 | 43.04816 | 38.04184 | 33802 ft | 439 kts | 69° |
| 2026-05-04 07:33 | 43.05966 | 38.07977 | 33811 ft | 437 kts | 72° |
| 2026-05-04 07:33 | 43.08165 | 38.15750 | 33808 ft | 435 kts | 77° |
| 2026-05-04 07:34 | 43.09043 | 38.23802 | 33790 ft | 429 kts | 89° |
| 2026-05-04 07:34 | 43.09436 | 38.30630 | 33800 ft | 430 kts | 89° |
| 2026-05-04 07:35 | 43.09903 | 38.38790 | 33808 ft | 432 kts | 89° |
| 2026-05-04 07:35 | 43.10377 | 38.46992 | 33816 ft | 432 kts | 89° |
| 2026-05-04 07:36 | 43.10842 | 38.55209 | 33819 ft | 432 kts | 89° |
| 2026-05-04 07:38 | 43.12661 | 38.88140 | 33814 ft | 436 kts | 89° |
| 2026-05-04 07:38 | 43.13098 | 38.96423 | 33819 ft | 437 kts | 89° |
| 2026-05-04 07:39 | 43.13535 | 39.04750 | 33821 ft | 438 kts | 89° |
| 2026-05-04 07:39 | 43.13959 | 39.13042 | 33821 ft | 438 kts | 90° |
| 2026-05-04 07:40 | 43.14385 | 39.21349 | 33814 ft | 433 kts | 90° |
| 2026-05-04 07:40 | 43.14594 | 39.25394 | 33639 ft | 421 kts | 89° |
| 2026-05-04 07:40 | 43.14833 | 39.29302 | 33353 ft | 413 kts | 87° |
| 2026-05-04 07:41 | 43.14858 | 39.33153 | 33066 ft | 396 kts | 105° |
| 2026-05-04 07:41 | 43.13963 | 39.36615 | 32810 ft | 380 kts | 122° |
| 2026-05-04 07:41 | 43.12447 | 39.39504 | 32544 ft | 370 kts | 135° |
| 2026-05-04 07:41 | 43.10520 | 39.41780 | 32278 ft | 366 kts | 148° |
| 2026-05-04 07:42 | 43.08264 | 39.43358 | 32017 ft | 363 kts | 161° |
| 2026-05-04 07:42 | 43.05803 | 39.44107 | 31764 ft | 363 kts | 175° |
| 2026-05-04 07:42 | 43.03278 | 39.43963 | 31523 ft | 364 kts | 188° |
| 2026-05-04 07:42 | 43.00863 | 39.42944 | 31128 ft | 365 kts | 202° |
| 2026-05-04 07:43 | 42.98716 | 39.41093 | 30688 ft | 368 kts | 217° |
| 2026-05-04 07:43 | 42.96972 | 39.38513 | 30177 ft | 374 kts | 231° |
| 2026-05-04 07:43 | 42.95727 | 39.35312 | 29160 ft | 392 kts | 248° |
| 2026-05-04 07:43 | 42.95103 | 39.31617 | 28148 ft | 406 kts | 258° |
| 2026-05-04 07:44 | 42.94738 | 39.27731 | 27168 ft | 417 kts | 261° |
| 2026-05-04 07:44 | 42.94506 | 39.23810 | 26456 ft | 421 kts | 263° |
| 2026-05-04 07:44 | 42.94338 | 39.19802 | 25708 ft | 425 kts | 264° |
| 2026-05-04 07:44 | 42.94197 | 39.15752 | 24971 ft | 429 kts | 266° |
| 2026-05-04 07:45 | 42.94541 | 39.11685 | 24269 ft | 436 kts | 283° |
| 2026-05-04 07:45 | 42.95749 | 39.07861 | 23574 ft | 442 kts | 301° |
| 2026-05-04 07:45 | 42.97751 | 39.04669 | 22782 ft | 445 kts | 320° |
| 2026-05-04 07:45 | 43.00386 | 39.02467 | 21950 ft | 445 kts | 339° |
| 2026-05-04 07:46 | 43.03382 | 39.01506 | 21164 ft | 442 kts | 358° |
| 2026-05-04 07:46 | 43.06418 | 39.01858 | 20416 ft | 437 kts | 17° |
| 2026-05-04 07:46 | 43.09154 | 39.03426 | 19809 ft | 427 kts | 36° |
| 2026-05-04 07:46 | 43.11370 | 39.05961 | 19608 ft | 406 kts | 50° |
| 2026-05-04 07:47 | 43.12981 | 39.09104 | 18723 ft | 404 kts | 68° |
| 2026-05-04 07:47 | 43.13821 | 39.12752 | 17808 ft | 403 kts | 83° |
| 2026-05-04 07:47 | 43.14223 | 39.16563 | 16823 ft | 406 kts | 87° |
| 2026-05-04 07:49 | 43.18016 | 39.42450 | 12752 ft | 338 kts | 78° |
| 2026-05-04 07:49 | 43.18649 | 39.45418 | 12497 ft | 312 kts | 78° |
| 2026-05-04 07:49 | 43.19255 | 39.48263 | 11629 ft | 310 kts | 78° |
| 2026-05-04 07:50 | 43.19860 | 39.51057 | 10748 ft | 309 kts | 77° |
| 2026-05-04 07:50 | 43.20485 | 39.53867 | 9914 ft | 308 kts | 76° |
| 2026-05-04 07:50 | 43.21121 | 39.56659 | 9004 ft | 306 kts | 76° |
| 2026-05-04 07:50 | 43.21764 | 39.59430 | 8098 ft | 304 kts | 75° |
| 2026-05-04 07:51 | 43.22405 | 39.62179 | 7203 ft | 302 kts | 77° |
| 2026-05-04 07:51 | 43.23046 | 39.64914 | 6359 ft | 300 kts | 77° |
| 2026-05-04 07:51 | 43.23682 | 39.67629 | 5461 ft | 297 kts | 77° |
| 2026-05-04 07:51 | 43.24309 | 39.70323 | 4581 ft | 294 kts | 77° |
| 2026-05-04 07:52 | 43.24913 | 39.72947 | 3684 ft | 291 kts | 76° |
| 2026-05-04 07:52 | 43.25518 | 39.75585 | 2918 ft | 285 kts | 75° |
| 2026-05-04 07:52 | 43.26092 | 39.78080 | 2549 ft | 265 kts | 74° |
| 2026-05-04 07:52 | 43.26751 | 39.80411 | 2423 ft | 262 kts | 62° |
| 2026-05-04 07:53 | 43.27839 | 39.82396 | 2288 ft | 257 kts | 44° |
| 2026-05-04 07:54 | 43.36584 | 39.89319 | 1513 ft | 155 kts | 28° |
| 2026-05-04 07:55 | 43.37531 | 39.90028 | 1311 ft | 155 kts | 27° |
| 2026-05-04 07:55 | 43.38463 | 39.90727 | 1105 ft | 155 kts | 27° |
| 2026-05-04 07:55 | 43.39417 | 39.91442 | 915 ft | 154 kts | 26° |
| 2026-05-04 07:55 | 43.40354 | 39.92143 | 714 ft | 154 kts | 26° |
| 2026-05-04 07:56 | 43.41276 | 39.92834 | 576 ft | 152 kts | 26° |
| 2026-05-04 07:56 | 43.42211 | 39.93540 | 413 ft | 152 kts | 27° |
| 2026-05-04 07:56 | 43.43135 | 39.94235 | 198 ft | 151 kts | 26° |
| 2026-05-04 07:56 | 43.44039 | 39.94922 | 84 ft | 138 kts | 28° |
| 2026-05-04 07:57 | 43.44720 | 39.95427 | 89 ft | 85 kts | 28° |
| 2026-05-04 07:57 | 43.45089 | 39.95706 | 91 ft | 42 kts | 28° |
| 2026-05-04 07:57 | 43.45210 | 39.95797 | 92 ft | 12 kts | 28° |
| 2026-05-04 07:57 | 43.45273 | 39.95834 | 96 ft | 7 kts | 353° |
| 2026-05-04 07:58 | 43.45285 | 39.95787 | 93 ft | 6 kts | 251° |
| 2026-05-04 07:58 | 43.45262 | 39.95719 | 92 ft | 10 kts | 240° |
| 2026-05-04 07:58 | 43.45221 | 39.95626 | 94 ft | 12 kts | 237° |
| 2026-05-04 07:58 | 43.45173 | 39.95529 | 92 ft | 13 kts | 235° |
| 2026-05-04 07:59 | 43.45118 | 39.95419 | 93 ft | 15 kts | 237° |
| 2026-05-04 07:59 | 43.45063 | 39.95268 | 89 ft | 20 kts | 245° |
| 2026-05-04 07:59 | 43.45000 | 39.95096 | 85 ft | 19 kts | 233° |
| 2026-05-04 07:59 | 43.44924 | 39.94924 | 69 ft | 23 kts | 244° |
| 2026-05-04 08:00 | 43.44849 | 39.94702 | 73 ft | 27 kts | 245° |
| 2026-05-04 08:00 | 43.44795 | 39.94545 | 67 ft | 7 kts | 245° |
| 2026-05-04 08:00 | 43.44788 | 39.94481 | 72 ft | 7 kts | 301° |
| 2026-05-04 08:02 | 43.44838 | 39.94441 | 72 ft | 0 kts | 335° |